Time;durP1;ratioP1;P1;durP2;ratioP2;P2;SDS_P1;SDS_P2;PMS_P1;PMS_P2;Temp;Humidity;BMP_temperature;BMP_pressure;BME280_temperature;BME280_humidity;BME280_pressure;Samples;Min_cycle;Max_cycle;Signal;HPM_P1;HPM_P2
2022/05/31 00:00:36;;;;;;;12.75;5.50;;;;;;;17.28;80.29;98453.59;6366767;22;20075;-94
2022/05/31 00:03:05;;;;;;;11.65;5.57;;;;;;;17.08;79.92;98431.44;6363893;22;20459;-94
2022/05/31 00:05:32;;;;;;;12.52;5.15;;;;;;;17.22;79.50;98430.66;6361335;22;20024;-94
2022/05/31 00:07:58;;;;;;;13.85;5.65;;;;;;;17.31;79.53;98446.22;6361480;22;20019;-93
2022/05/31 00:10:24;;;;;;;11.25;4.85;;;;;;;17.16;79.86;98422.94;6361451;22;20015;-94
2022/05/31 00:12:52;;;;;;;11.93;5.50;;;;;;;17.11;80.27;98436.66;6364885;22;20018;-94
2022/05/31 00:15:20;;;;;;;12.35;5.57;;;;;;;16.95;81.02;98422.38;6361622;22;20019;-94
2022/05/31 00:17:45;;;;;;;12.02;5.53;;;;;;;16.98;81.60;98431.16;6358378;22;20044;-93
2022/05/31 00:20:13;;;;;;;15.18;5.47;;;;;;;16.89;81.00;98414.69;6362166;22;20070;-94
2022/05/31 00:22:41;;;;;;;11.73;4.90;;;;;;;16.94;80.89;98415.31;6365385;22;20015;-94
2022/05/31 00:25:08;;;;;;;9.55;5.05;;;;;;;16.84;81.40;98418.50;6368103;22;20014;-96
2022/05/31 00:27:38;;;;;;;12.05;5.10;;;;;;;16.82;81.76;98414.19;6365901;22;20019;-94
2022/05/31 00:30:07;;;;;;;15.05;5.88;;;;;;;16.84;81.74;98420.31;6365793;22;20471;-94
2022/05/31 00:32:39;;;;;;;18.33;5.22;;;;;;;16.76;82.50;98417.19;6366372;22;20019;-95
2022/05/31 00:35:09;;;;;;;13.60;5.57;;;;;;;16.78;82.02;98434.06;6365459;22;20015;-94
2022/05/31 00:37:35;;;;;;;11.32;4.90;;;;;;;16.83;83.04;98445.47;6366525;22;20033;-94
2022/05/31 00:40:03;;;;;;;10.75;5.45;;;;;;;16.60;83.27;98418.06;6333177;22;20022;-95
2022/05/31 00:42:47;;;;;;;16.27;5.35;;;;;;;16.57;83.52;98414.72;6334397;22;20015;-95
2022/05/31 00:45:18;;;;;;;15.43;5.78;;;;;;;16.51;83.82;98412.38;6337099;22;20022;-95
2022/05/31 00:47:49;;;;;;;13.75;5.07;;;;;;;16.64;84.08;98441.09;6337333;22;20015;-95
2022/05/31 00:50:24;;;;;;;13.02;5.18;;;;;;;16.57;84.51;98431.69;6336721;22;20054;-94
2022/05/31 00:52:58;;;;;;;12.85;4.88;;;;;;;16.47;84.63;98421.56;6336386;22;20047;-95
2022/05/31 00:55:28;;;;;;;12.20;5.47;;;;;;;16.55;85.20;98438.94;6333006;22;20054;-95
2022/05/31 00:58:00;;;;;;;15.45;5.53;;;;;;;16.56;85.10;98437.97;6329190;22;20020;-94
2022/05/31 01:00:28;;;;;;;13.07;5.03;;;;;;;16.52;85.55;98419.47;6328031;22;20019;-93
2022/05/31 01:02:56;;;;;;;14.07;5.00;;;;;;;16.54;85.59;98413.03;6328486;22;20011;-94
2022/05/31 01:05:24;;;;;;;8.57;5.22;;;;;;;16.57;86.35;98431.69;6325825;22;20019;-93
2022/05/31 01:07:50;;;;;;;16.02;5.47;;;;;;;16.50;87.53;98430.28;6328139;22;20022;-94
2022/05/31 01:10:17;;;;;;;12.77;5.65;;;;;;;16.52;87.38;98416.78;6329741;22;20047;-93
2022/05/31 01:12:47;;;;;;;16.65;5.53;;;;;;;16.63;86.56;98433.13;6329395;22;20056;-94
2022/05/31 01:15:17;;;;;;;12.32;5.13;;;;;;;16.55;86.79;98422.00;6329526;22;20019;-95
2022/05/31 01:17:46;;;;;;;14.52;5.88;;;;;;;16.56;87.14;98421.88;6330704;22;20019;-94
2022/05/31 01:20:20;;;;;;;12.32;5.35;;;;;;;16.60;87.30;98431.50;6329526;22;20021;-95
2022/05/31 01:22:50;;;;;;;16.15;5.70;;;;;;;16.58;87.06;98422.66;6329030;22;20079;-95
2022/05/31 01:25:33;;;;;;;12.50;5.53;;;;;;;16.58;87.34;98419.97;6328995;22;20098;-94
2022/05/31 01:28:10;;;;;;;14.10;6.05;;;;;;;16.64;86.55;98443.78;6330620;22;20074;-95
2022/05/31 01:30:42;;;;;;;10.00;5.82;;;;;;;16.61;86.83;98443.97;6330549;22;20092;-94
2022/05/31 01:33:16;;;;;;;10.85;6.18;;;;;;;16.46;86.38;98434.09;6329680;22;20011;-94
2022/05/31 01:35:48;;;;;;;15.60;6.30;;;;;;;16.35;87.47;98429.34;6330087;22;20472;-95
2022/05/31 01:38:19;;;;;;;12.88;6.40;;;;;;;16.42;87.29;98452.19;6329476;22;20015;-94
2022/05/31 01:40:55;;;;;;;16.58;5.55;;;;;;;16.22;88.00;98426.47;6329918;22;20043;-95
2022/05/31 01:43:23;;;;;;;11.93;5.47;;;;;;;16.33;90.08;98449.13;6329027;22;20073;-93
2022/05/31 01:45:55;;;;;;;12.93;5.78;;;;;;;16.13;89.09;98431.47;6329266;22;20020;-94
2022/05/31 01:48:22;;;;;;;15.25;5.40;;;;;;;16.23;89.65;98449.66;6329369;22;20019;-95
2022/05/31 01:50:51;;;;;;;11.70;5.78;;;;;;;16.21;89.44;98448.03;6330515;22;20026;-94
2022/05/31 01:53:17;;;;;;;17.27;5.80;;;;;;;16.06;89.45;98427.41;6330085;22;20063;-93
2022/05/31 01:55:56;;;;;;;10.80;5.35;;;;;;;16.00;90.03;98432.16;6329554;22;20050;-95
2022/05/31 01:58:25;;;;;;;15.10;6.07;;;;;;;16.01;89.95;98424.97;6330033;22;20322;-94
2022/05/31 02:00:51;;;;;;;;;;;;;;;16.16;89.03;98455.47;6326595;22;20019;-95
2022/05/31 02:03:20;;;;;;;14.63;6.30;;;;;;;15.98;88.84;98436.75;6321078;22;19921;-94
2022/05/31 02:05:52;;;;;;;12.20;5.45;;;;;;;16.10;89.95;98463.84;6326698;22;20318;-94
2022/05/31 02:08:20;;;;;;;18.33;6.43;;;;;;;15.88;89.09;98431.97;6325274;22;20026;-94
2022/05/31 02:10:47;;;;;;;14.63;5.83;;;;;;;15.87;89.57;98441.78;6325859;22;20015;-93
2022/05/31 02:13:14;;;;;;;13.65;5.65;;;;;;;15.84;90.35;98441.13;6320464;22;20082;-94
2022/05/31 02:15:40;;;;;;;16.42;5.55;;;;;;;15.97;89.87;98437.69;6316922;22;20098;-95
2022/05/31 02:18:06;;;;;;;12.80;5.78;;;;;;;15.99;89.27;98432.25;6316978;22;20079;-93
2022/05/31 02:20:33;;;;;;;11.27;5.40;;;;;;;15.92;89.82;98433.53;6324554;22;20025;-94
2022/05/31 02:23:01;;;;;;;15.77;5.43;;;;;;;16.04;90.46;98474.91;6328455;22;20026;-94
2022/05/31 02:25:28;;;;;;;14.98;6.30;;;;;;;15.89;90.77;98453.31;6329243;22;20025;-95
2022/05/31 02:27:54;;;;;;;15.30;5.97;;;;;;;15.77;90.73;98430.72;6329784;22;20006;-95
2022/05/31 02:30:21;;;;;;;11.98;6.45;;;;;;;15.74;92.18;98432.69;6329532;22;20057;-93
2022/05/31 02:32:47;;;;;;;16.67;6.55;;;;;;;15.71;92.85;98423.00;6328506;22;20019;-94
2022/05/31 02:35:14;;;;;;;10.50;5.65;;;;;;;15.68;94.30;98430.28;6328929;22;20011;-94
2022/05/31 02:37:41;;;;;;;16.95;5.72;;;;;;;15.73;94.03;98421.09;6329144;22;20032;-93
2022/05/31 02:40:12;;;;;;;18.48;6.43;;;;;;;15.82;92.30;98428.66;6326902;22;20011;-94
2022/05/31 02:42:39;;;;;;;10.95;6.15;;;;;;;15.96;92.60;98446.69;6328929;22;20019;-94
2022/05/31 02:45:08;;;;;;;16.02;6.35;;;;;;;15.93;91.84;98425.38;6327372;22;20026;-94
2022/05/31 02:47:37;;;;;;;13.37;6.00;;;;;;;15.89;91.88;98423.81;6328193;22;20019;-94
2022/05/31 02:50:05;;;;;;;15.95;6.18;;;;;;;15.88;91.11;98427.47;6329582;22;20041;-95
2022/05/31 02:52:32;;;;;;;14.57;5.50;;;;;;;15.83;91.32;98418.81;6328448;22;20015;-94
2022/05/31 02:55:01;;;;;;;14.57;5.35;;;;;;;15.92;91.85;98423.66;6326756;22;20019;-94
2022/05/31 02:57:31;;;;;;;10.23;5.47;;;;;;;16.09;90.90;98454.94;6327906;22;20022;-94
2022/05/31 02:59:57;;;;;;;12.45;5.63;;;;;;;15.97;90.77;98431.47;6328908;22;20019;-94
2022/05/31 03:02:27;;;;;;;9.95;5.80;;;;;;;15.96;90.36;98440.44;6328580;22;20015;-94
2022/05/31 03:04:54;;;;;;;12.85;6.05;;;;;;;15.77;90.38;98420.00;6328524;22;20098;-94
2022/05/31 03:07:21;;;;;;;11.18;5.85;;;;;;;15.75;91.18;98423.72;6329218;22;20035;-95
2022/05/31 03:09:47;;;;;;;15.43;6.25;;;;;;;15.89;91.26;98457.81;6328161;22;20425;-93
2022/05/31 03:12:17;;;;;;;14.00;5.72;;;;;;;15.88;92.29;98456.94;6327384;22;20022;-94
2022/05/31 03:14:52;;;;;;;11.15;6.10;;;;;;;15.79;93.01;98439.53;6327298;22;20019;-95
2022/05/31 03:17:25;;;;;;;16.95;5.72;;;;;;;15.95;91.45;98431.53;6319752;22;20042;-96
2022/05/31 03:19:59;;;;;;;11.05;5.38;;;;;;;16.06;89.90;98430.94;6320162;22;20015;-94
2022/05/31 03:22:29;;;;;;;12.73;5.53;;;;;;;16.17;89.58;98441.09;6315398;22;20436;-94
2022/05/31 03:25:00;;;;;;;15.10;5.72;;;;;;;16.07;89.28;98408.56;6318928;22;20027;-95
2022/05/31 03:27:28;;;;;;;15.05;5.95;;;;;;;16.09;89.17;98417.38;6324932;22;20022;-94
2022/05/31 03:30:00;;;;;;;15.75;6.38;;;;;;;16.15;88.53;98425.06;6325604;22;20015;-95
2022/05/31 03:32:27;;;;;;;13.60;5.55;;;;;;;16.11;89.17;98423.53;6327462;22;20015;-96
2022/05/31 03:34:53;;;;;;;15.45;6.05;;;;;;;16.25;88.56;98459.47;6325908;22;20018;-94
2022/05/31 03:37:19;;;;;;;15.70;6.00;;;;;;;15.99;89.11;98434.91;6326959;22;20041;-95
2022/05/31 03:39:46;;;;;;;14.65;6.57;;;;;;;15.99;89.05;98429.56;6325885;22;20021;-93
2022/05/31 03:42:13;;;;;;;12.77;7.13;;;;;;;15.89;89.27;98433.69;6325098;22;20019;-95
2022/05/31 03:44:39;;;;;;;12.82;5.55;;;;;;;15.86;89.90;98442.75;6327047;22;20020;-94
2022/05/31 03:47:07;;;;;;;14.32;6.50;;;;;;;15.77;90.29;98437.91;6326968;22;20023;-96
2022/05/31 03:49:34;;;;;;;11.98;6.03;;;;;;;15.82;90.45;98454.59;6327624;22;20019;-95
2022/05/31 03:52:02;;;;;;;11.25;5.82;;;;;;;15.69;90.98;98438.25;6327562;22;20093;-94
2022/05/31 03:54:29;;;;;;;12.18;5.50;;;;;;;15.72;91.50;98437.25;6326763;22;20023;-96
2022/05/31 03:56:55;;;;;;;14.10;6.13;;;;;;;15.70;91.22;98437.34;6326661;22;20016;-94
2022/05/31 03:59:22;;;;;;;14.85;6.28;;;;;;;15.73;92.05;98450.59;6326443;22;20021;-94
2022/05/31 04:01:48;;;;;;;13.15;5.72;;;;;;;15.79;91.31;98447.59;6326826;22;20015;-96
2022/05/31 04:04:20;;;;;;;13.57;6.28;;;;;;;16.03;91.18;98476.72;6328190;22;20030;-96
2022/05/31 04:06:46;;;;;;;12.40;6.57;;;;;;;15.88;90.99;98448.91;6325685;22;20019;-95
2022/05/31 04:09:12;;;;;;;15.32;6.15;;;;;;;16.10;90.97;98477.25;6326605;22;20441;-94
2022/05/31 04:11:39;;;;;;;14.68;6.60;;;;;;;15.96;90.34;98456.53;6326263;22;20016;-95
2022/05/31 04:14:05;;;;;;;15.95;6.40;;;;;;;15.99;90.15;98451.88;6326977;22;20019;-95
2022/05/31 04:16:33;;;;;;;12.63;6.53;;;;;;;16.18;89.73;98483.94;6327331;22;20015;-94
2022/05/31 04:19:02;;;;;;;14.25;6.20;;;;;;;16.01;89.55;98459.84;6325631;22;20015;-95
2022/05/31 04:21:30;;;;;;;11.35;6.93;;;;;;;16.08;89.37;98481.84;6326390;22;20023;-94
2022/05/31 04:23:58;;;;;;;12.55;6.50;;;;;;;15.94;90.17;98480.75;6326125;22;20094;-94
2022/05/31 04:26:25;;;;;;;11.45;6.35;;;;;;;15.99;90.29;98485.88;6326487;22;20019;-94
2022/05/31 04:28:54;;;;;;;13.52;6.60;;;;;;;16.01;89.72;98483.97;6328851;22;20022;-95
2022/05/31 04:31:21;;;;;;;15.55;6.95;;;;;;;16.04;89.28;98483.81;6329896;22;20066;-94
2022/05/31 04:33:48;;;;;;;15.48;7.05;;;;;;;15.95;89.60;98484.31;6330511;22;20018;-94
2022/05/31 04:36:17;;;;;;;14.05;6.57;;;;;;;15.96;89.45;98483.34;6329567;22;20015;-94
2022/05/31 04:38:45;;;;;;;12.98;7.13;;;;;;;16.07;89.73;98510.47;6328838;22;20042;-94
2022/05/31 04:41:17;;;;;;;14.27;6.55;;;;;;;15.97;90.10;98479.72;6328993;22;20015;-94
2022/05/31 04:43:44;;;;;;;18.10;6.75;;;;;;;16.02;90.15;98489.25;6330365;22;20011;-95
2022/05/31 04:46:12;;;;;;;17.50;6.85;;;;;;;16.08;90.07;98485.38;6329095;22;20015;-94
2022/05/31 04:48:39;;;;;;;10.65;7.50;;;;;;;16.16;89.60;98480.47;6329371;22;20015;-94
2022/05/31 04:51:05;;;;;;;16.17;6.95;;;;;;;16.29;88.32;98479.81;6325616;22;20030;-95
2022/05/31 04:53:32;;;;;;;16.30;7.10;;;;;;;16.43;86.80;98482.56;6328371;22;20011;-95
2022/05/31 04:56:03;;;;;;;16.67;8.85;;;;;;;16.62;86.59;98480.59;6328885;22;20019;-94
2022/05/31 04:58:29;;;;;;;16.23;6.68;;;;;;;17.01;84.69;98473.94;6329536;22;20049;-95
2022/05/31 05:00:56;;;;;;;14.60;7.38;;;;;;;17.51;83.15;98500.63;6329625;22;20019;-94
2022/05/31 05:03:22;;;;;;;16.80;6.90;;;;;;;17.82;80.16;98489.75;6330253;22;20023;-95
2022/05/31 05:05:48;;;;;;;14.52;5.95;;;;;;;18.12;78.64;98490.66;6329743;22;20049;-94
2022/05/31 05:08:17;;;;;;;;;;;;;;;18.67;77.05;98522.16;6329771;22;20026;-95
2022/05/31 05:10:47;;;;;;;15.63;6.03;;;;;;;18.71;75.19;98502.13;6329581;22;19930;-95
2022/05/31 05:13:16;;;;;;;12.30;6.78;;;;;;;18.58;75.56;98493.97;6327517;22;20076;-95
2022/05/31 05:15:43;;;;;;;16.48;5.70;;;;;;;18.58;76.25;98490.44;6326838;22;20015;-93
2022/05/31 05:18:10;;;;;;;15.60;6.20;;;;;;;18.63;76.38;98497.25;6325218;22;20323;-96
2022/05/31 05:20:39;;;;;;;8.63;5.28;;;;;;;18.81;76.67;98502.44;6326260;22;20011;-94
2022/05/31 05:23:06;;;;;;;12.65;5.43;;;;;;;19.46;72.77;98523.31;6324810;22;20015;-95
2022/05/31 05:25:33;;;;;;;15.15;5.85;;;;;;;19.78;70.39;98493.28;6326966;22;20015;-94
2022/05/31 05:27:59;;;;;;;11.38;5.22;;;;;;;20.23;68.61;98499.13;6324798;22;20019;-95
2022/05/31 05:33:24;;;;;;;9.77;5.07;;;;;;;20.80;67.12;98489.69;5165477;27;20172;-95
2022/05/31 05:35:51;;;;;;;9.20;4.78;;;;;;;20.33;67.60;98497.50;5169127;27;20049;-95
2022/05/31 05:38:17;;;;;;;12.65;5.45;;;;;;;19.79;69.61;98506.69;5162256;27;20066;-95
2022/05/31 05:40:43;;;;;;;8.65;5.15;;;;;;;19.14;72.92;98506.59;5161390;27;20137;-94
2022/05/31 05:43:10;;;;;;;14.98;5.65;;;;;;;18.66;75.95;98517.75;5158326;27;20042;-96
2022/05/31 05:45:36;;;;;;;13.82;5.55;;;;;;;18.06;78.58;98502.66;5158590;27;20480;-95
2022/05/31 05:48:03;;;;;;;14.75;5.78;;;;;;;17.63;81.50;98510.59;5159029;27;20372;-95
2022/05/31 05:50:30;;;;;;;11.70;5.53;;;;;;;17.56;82.25;98518.19;5159820;27;20043;-95
2022/05/31 05:53:00;;;;;;;17.58;6.38;;;;;;;17.29;84.22;98519.84;5158139;27;20035;-94
2022/05/31 05:55:28;;;;;;;12.45;6.05;;;;;;;17.05;84.92;98514.94;5156087;27;20047;-96
2022/05/31 05:57:54;;;;;;;12.75;6.38;;;;;;;16.96;85.35;98528.88;5156197;27;20043;-94
2022/05/31 06:00:21;;;;;;;14.55;6.30;;;;;;;17.22;85.01;98530.06;5155914;27;20072;-93
2022/05/31 06:02:51;;;;;;;17.33;7.43;;;;;;;17.65;81.93;98527.53;5155510;27;20043;-93
2022/05/31 06:05:23;;;;;;;13.82;6.53;;;;;;;17.94;80.98;98533.88;5134857;28;20442;-96
2022/05/31 06:07:55;;;;;;;15.10;6.20;;;;;;;18.30;78.66;98535.25;5134852;28;20067;-93
2022/05/31 06:10:24;;;;;;;12.25;6.65;;;;;;;18.48;76.90;98523.34;5135075;28;20039;-93
2022/05/31 06:12:55;;;;;;;12.15;5.68;;;;;;;18.67;76.79;98535.59;5134190;28;20047;-94
2022/05/31 06:15:25;;;;;;;13.45;5.97;;;;;;;18.68;76.95;98535.53;5136410;28;20110;-95
2022/05/31 06:17:55;;;;;;;9.65;5.78;;;;;;;18.61;76.50;98514.47;5134686;28;20106;-94
2022/05/31 06:20:21;;;;;;;11.43;5.65;;;;;;;18.44;78.17;98504.78;5133941;28;20092;-95
2022/05/31 06:22:47;;;;;;;12.90;6.88;;;;;;;18.25;80.69;98516.69;5133596;28;20057;-95
2022/05/31 06:25:20;;;;;;;15.75;6.75;;;;;;;18.26;79.93;98512.19;5135514;28;20039;-93
2022/05/31 06:27:46;;;;;;;14.02;6.72;;;;;;;17.90;81.59;98505.44;5136380;28;20035;-95
2022/05/31 06:30:12;;;;;;;13.55;6.80;;;;;;;17.99;81.16;98512.06;5143776;28;20118;-94
2022/05/31 06:32:38;;;;;;;14.82;6.50;;;;;;;17.85;81.56;98511.09;5138597;28;20043;-95
2022/05/31 06:35:05;;;;;;;11.35;7.18;;;;;;;17.76;83.00;98506.25;5140201;28;20507;-94
2022/05/31 06:37:31;;;;;;;11.85;6.53;;;;;;;17.83;81.76;98530.97;5136800;28;20067;-95
2022/05/31 06:39:57;;;;;;;15.05;6.45;;;;;;;17.89;81.23;98543.19;5139315;28;20088;-96
2022/05/31 06:42:25;;;;;;;11.93;5.95;;;;;;;17.78;81.23;98550.06;5135032;28;20071;-94
2022/05/31 06:44:51;;;;;;;14.20;6.15;;;;;;;17.70;82.22;98538.88;5124936;28;20130;-95
2022/05/31 06:47:17;;;;;;;14.07;6.50;;;;;;;17.74;81.33;98547.63;5123101;28;20097;-95
2022/05/31 06:49:43;;;;;;;17.17;6.72;;;;;;;17.75;81.20;98539.47;5122963;28;20104;-94
2022/05/31 06:58:19;;;;;;;12.23;5.45;;;;;;;18.64;77.68;98535.81;5142054;27;20386;-96
2022/05/31 07:00:45;;;;;;;14.65;5.80;;;;;;;18.91;74.54;98535.91;5145628;28;20043;-95
2022/05/31 07:03:11;;;;;;;12.75;5.78;;;;;;;19.55;72.76;98538.84;5145480;27;20039;-93
2022/05/31 07:05:39;;;;;;;14.52;6.25;;;;;;;19.66;71.63;98544.38;5141205;27;20043;-95
2022/05/31 07:08:06;;;;;;;18.17;5.55;;;;;;;19.74;70.56;98521.47;5140215;27;20047;-96
2022/05/31 07:10:38;;;;;;;16.20;5.43;;;;;;;19.61;71.25;98548.38;5146079;27;20054;-96
2022/05/31 07:13:04;;;;;;;13.73;5.63;;;;;;;19.72;70.89;98526.97;5143172;27;20042;-95
2022/05/31 07:15:33;;;;;;;14.13;5.80;;;;;;;19.88;70.34;98526.75;5140711;27;20051;-96
2022/05/31 07:18:00;;;;;;;17.05;5.60;;;;;;;20.28;69.98;98524.84;5142166;27;20047;-95
2022/05/31 07:20:25;;;;;;;15.88;5.57;;;;;;;20.34;68.52;98538.88;5142972;27;20031;-96
2022/05/31 07:22:52;;;;;;;12.80;4.80;;;;;;;20.88;66.07;98549.44;5141569;27;20050;-94
2022/05/31 07:25:18;;;;;;;13.18;5.22;;;;;;;20.92;66.21;98534.72;5142019;27;20075;-95
2022/05/31 07:27:44;;;;;;;13.20;5.38;;;;;;;20.92;65.31;98540.13;5142069;27;20046;-95
2022/05/31 07:30:10;;;;;;;11.13;4.75;;;;;;;21.13;65.20;98545.78;5143343;27;20036;-95
2022/05/31 07:32:38;;;;;;;10.55;4.53;;;;;;;21.20;65.43;98528.13;5142357;27;20054;-94
2022/05/31 07:35:08;;;;;;;11.45;5.30;;;;;;;21.12;65.78;98526.00;5140541;28;20036;-95
2022/05/31 07:37:35;;;;;;;12.70;5.03;;;;;;;21.35;63.75;98515.31;5141144;27;20035;-95
2022/05/31 07:40:01;;;;;;;12.57;4.82;;;;;;;21.78;63.53;98517.47;5142717;27;20040;-95
2022/05/31 07:42:27;;;;;;;13.50;4.95;;;;;;;22.13;61.58;98522.00;5136689;27;20136;-94
2022/05/31 07:45:21;;;;;;;13.75;5.13;;;;;;;22.32;60.63;98532.28;5145155;27;20047;-96
2022/05/31 07:47:48;;;;;;;10.27;4.60;;;;;;;22.43;60.05;98513.31;5144207;27;20035;-95
2022/05/31 07:50:15;;;;;;;22.35;4.97;;;;;;;22.79;59.91;98505.88;5139481;28;20043;-94
2022/05/31 07:52:41;;;;;;;14.45;4.85;;;;;;;23.25;58.50;98513.00;5144469;27;20063;-95
2022/05/31 07:55:11;;;;;;;12.57;4.85;;;;;;;22.90;58.87;98494.16;5144841;27;20048;-95
2022/05/31 08:00:43;;;;;;;14.20;5.03;;;;;;;23.62;57.54;98495.47;5148785;27;20362;-96
2022/05/31 08:03:09;;;;;;;16.73;4.83;;;;;;;23.37;56.19;98500.25;5138962;28;20557;-95
2022/05/31 08:05:37;;;;;;;11.80;4.82;;;;;;;23.15;57.45;98491.19;5147470;28;20051;-96
2022/05/31 08:08:12;;;;;;;10.23;4.20;;;;;;;23.36;57.32;98493.97;5150643;27;20043;-96
2022/05/31 08:10:41;;;;;;;15.27;4.60;;;;;;;23.72;55.68;98483.66;5149661;27;20040;-95
2022/05/31 08:13:14;;;;;;;9.27;4.30;;;;;;;24.32;54.19;98494.81;5281879;22;20129;-95
2022/05/31 08:15:43;;;;;;;17.80;4.60;;;;;;;24.15;53.94;98488.13;5123510;28;20079;-95
2022/05/31 08:18:10;;;;;;;15.15;4.75;;;;;;;24.26;53.31;98497.19;5120339;28;20101;-95
2022/05/31 08:20:39;;;;;;;13.43;5.13;;;;;;;24.54;53.05;98495.66;5123491;28;20048;-94
2022/05/31 08:23:07;;;;;;;14.13;4.85;;;;;;;24.06;53.99;98504.38;5124552;28;20074;-95
2022/05/31 08:25:43;;;;;;;10.90;4.53;;;;;;;24.26;53.84;98517.06;5126273;28;20036;-94
2022/05/31 08:28:09;;;;;;;11.25;4.25;;;;;;;24.49;52.92;98506.94;5123028;28;20083;-93
2022/05/31 08:30:35;;;;;;;10.82;4.72;;;;;;;24.43;52.65;98512.03;5117401;28;20040;-94
2022/05/31 08:33:03;;;;;;;10.88;4.20;;;;;;;24.35;52.44;98513.56;5123586;28;20440;-94
2022/05/31 08:35:29;;;;;;;12.00;4.38;;;;;;;24.55;51.96;98532.72;5115774;28;20048;-94
2022/05/31 08:37:54;;;;;;;16.52;4.60;;;;;;;24.80;51.49;98528.66;5113404;28;20048;-93
2022/05/31 08:40:20;;;;;;;11.30;4.68;;;;;;;24.88;51.60;98508.97;5113734;28;20044;-93
2022/05/31 08:42:51;;;;;;;11.73;4.20;;;;;;;25.11;49.11;98512.28;5109279;28;20040;-93
2022/05/31 08:45:37;;;;;;;13.77;4.47;;;;;;;25.16;49.59;98510.03;5109797;28;20048;-92
2022/05/31 08:48:14;;;;;;;14.07;4.40;;;;;;;25.55;49.21;98524.56;5092525;28;20040;-93
2022/05/31 08:59:51;;;;;;;10.90;4.53;;;;;;;25.87;47.18;98517.94;5130928;27;20380;-93
2022/05/31 09:02:21;;;;;;;11.85;4.35;;;;;;;25.49;47.36;98505.22;5134241;27;20047;-91
2022/05/31 09:04:56;;;;;;;12.70;3.80;;;;;;;25.84;47.75;98515.53;5124928;28;20047;-89
2022/05/31 09:07:27;;;;;;;10.63;4.50;;;;;;;26.23;45.20;98515.50;5123770;28;20094;-91
2022/05/31 09:10:00;;;;;;;8.82;4.35;;;;;;;26.41;45.61;98502.84;5126268;28;20047;-94
2022/05/31 09:12:36;;;;;;;10.55;4.40;;;;;;;26.58;44.80;98514.00;5132888;28;20077;-93
2022/05/31 09:15:09;;;;;;;10.85;4.32;;;;;;;26.77;42.67;98533.00;5120706;27;20036;-93
2022/05/31 09:17:45;;;;;;;10.90;4.15;;;;;;;26.72;44.03;98523.53;5118246;28;20460;-94
2022/05/31 09:20:16;;;;;;;6.72;3.63;;;;;;;26.53;44.07;98513.56;5115758;28;20139;-94
2022/05/31 09:22:45;;;;;;;10.27;4.13;;;;;;;26.60;43.18;98495.63;5115528;28;20051;-94
2022/05/31 09:25:11;;;;;;;17.77;4.80;;;;;;;26.56;42.83;98499.66;5130504;28;20043;-93
2022/05/31 09:27:41;;;;;;;9.68;3.78;;;;;;;26.55;44.32;98525.19;5130958;28;20042;-93
2022/05/31 09:30:14;;;;;;;14.32;5.28;;;;;;;25.88;44.32;98525.16;5121924;28;20058;-93
2022/05/31 09:32:50;;;;;;;10.82;4.10;;;;;;;25.39;45.39;98524.25;5119565;27;20049;-94
2022/05/31 09:35:29;;;;;;;10.35;3.83;;;;;;;24.99;45.10;98525.16;5128357;27;20053;-91
2022/05/31 09:38:30;;;;;;;11.23;4.57;;;;;;;24.81;45.89;98530.41;5115734;28;20500;-89
2022/05/31 09:41:06;;;;;;;10.70;4.63;;;;;;;25.34;45.32;98511.06;5108773;27;20062;-93
2022/05/31 09:43:39;;;;;;;11.27;5.00;;;;;;;25.93;43.39;98522.88;5121176;28;20074;-92
2022/05/31 09:46:10;;;;;;;10.50;4.10;;;;;;;25.88;43.52;98508.81;5132480;27;20166;-92
2022/05/31 09:48:44;;;;;;;11.38;4.22;;;;;;;26.39;43.26;98526.66;5133036;28;20370;-91
2022/05/31 09:51:18;;;;;;;9.45;4.20;;;;;;;26.35;42.85;98503.44;5126412;27;20054;-91
2022/05/31 09:57:19;;;;;;;8.40;3.92;;;;;;;26.84;42.81;98515.00;5134541;27;20383;-93
2022/05/31 09:59:33;;;;;;;15.07;4.75;;;;;;;26.94;43.24;98508.69;5118427;28;20040;-92
2022/05/31 10:02:12;;;;;;;;;;;;;;;27.02;42.10;98528.72;5122180;28;20099;-92
2022/05/31 10:04:38;;;;;;;14.95;4.30;;;;;;;27.02;42.68;98527.84;5127925;28;20284;-92
2022/05/31 10:07:06;;;;;;;10.23;4.10;;;;;;;26.98;42.01;98494.56;5134571;28;20050;-93
2022/05/31 10:09:34;;;;;;;10.10;3.85;;;;;;;26.84;41.88;98498.66;5134392;28;20395;-91
2022/05/31 10:12:15;;;;;;;;;;;;;;;26.39;43.86;98525.78;5133766;28;20039;-93
2022/05/31 10:14:44;;;;;;;14.07;4.15;;;;;;;26.57;43.44;98490.47;5135314;28;19983;-93
2022/05/31 10:17:33;;;;;;;12.88;4.20;;;;;;;26.87;42.81;98493.91;5133936;28;20043;-92
2022/05/31 10:20:19;;;;;;;12.30;4.53;;;;;;;26.72;42.81;98516.25;5132832;28;20069;-90
2022/05/31 10:22:56;;;;;;;8.93;4.15;;;;;;;27.01;42.08;98516.09;5128851;28;20131;-93
2022/05/31 10:25:25;;;;;;;7.78;3.55;;;;;;;27.00;41.65;98506.19;5134859;28;20035;-93
2022/05/31 10:27:56;;;;;;;;;;;;;;;27.31;40.18;98521.41;5136064;28;20056;-94
2022/05/31 10:30:23;;;;;;;11.27;4.10;;;;;;;27.35;41.74;98509.19;5133903;28;19959;-93
2022/05/31 10:32:51;;;;;;;10.45;4.25;;;;;;;27.43;42.53;98501.94;5134863;28;20065;-93
2022/05/31 10:35:20;;;;;;;11.23;3.78;;;;;;;27.69;41.56;98503.00;5133862;28;20042;-93
2022/05/31 10:37:57;;;;;;;11.95;4.25;;;;;;;27.58;41.66;98496.75;5135097;28;20069;-92
2022/05/31 10:40:28;;;;;;;10.98;3.83;;;;;;;27.77;41.34;98494.88;5134520;28;20039;-94
2022/05/31 10:43:06;;;;;;;13.32;4.38;;;;;;;27.29;40.31;98490.69;5134714;28;20036;-93
2022/05/31 10:45:32;;;;;;;8.75;4.00;;;;;;;27.30;40.81;98485.03;5134475;28;20118;-92
2022/05/31 10:48:00;;;;;;;10.30;4.10;;;;;;;27.31;41.26;98484.03;5132874;28;20134;-92
2022/05/31 10:50:33;;;;;;;13.77;4.07;;;;;;;27.59;40.67;98497.63;5134447;28;20113;-92
2022/05/31 10:53:13;;;;;;;9.50;3.67;;;;;;;27.75;40.24;98510.56;5136120;28;20075;-93
2022/05/31 10:55:42;;;;;;;12.60;4.30;;;;;;;27.12;41.46;98511.44;5134155;28;20090;-94
2022/05/31 10:58:26;;;;;;;14.68;3.95;;;;;;;27.29;40.96;98501.59;5132913;28;20138;-92
2022/05/31 11:00:57;;;;;;;9.60;4.00;;;;;;;27.38;40.81;98479.66;5133266;28;20044;-92
2022/05/31 11:03:37;;;;;;;9.90;4.20;;;;;;;27.30;41.83;98481.47;5133683;28;20036;-93
2022/05/31 11:06:16;;;;;;;14.75;4.10;;;;;;;27.39;42.71;98496.91;5132333;28;20040;-91
2022/05/31 11:12:09;;;;;;;12.63;4.00;;;;;;;27.60;40.87;98492.00;5137128;27;20372;-92
2022/05/31 11:14:46;;;;;;;11.02;4.18;;;;;;;27.11;40.75;98466.03;5135183;27;20046;-92
2022/05/31 11:17:30;;;;;;;11.55;4.30;;;;;;;27.20;41.14;98479.63;5135551;27;20084;-94
2022/05/31 11:20:03;;;;;;;11.00;4.13;;;;;;;27.44;41.02;98470.00;5136308;27;20051;-96
2022/05/31 11:22:41;;;;;;;10.18;4.00;;;;;;;27.65;40.16;98488.78;5137624;27;20048;-94
2022/05/31 11:25:36;;;;;;;9.45;4.43;;;;;;;27.40;41.48;98479.53;5135993;27;20043;-93
2022/05/31 11:28:17;;;;;;;8.48;3.80;;;;;;;27.22;42.82;98488.56;5131250;28;20047;-94
2022/05/31 11:31:00;;;;;;;12.20;4.20;;;;;;;26.42;43.52;98482.72;5133993;27;20035;-94
2022/05/31 11:33:36;;;;;;;11.55;4.50;;;;;;;27.14;43.21;98480.25;5133675;28;20035;-95
2022/05/31 11:36:17;;;;;;;15.55;4.95;;;;;;;27.01;41.94;98475.16;5135728;27;20088;-93
2022/05/31 11:38:53;;;;;;;12.38;4.22;;;;;;;27.30;42.24;98478.72;5134204;27;20051;-92
2022/05/31 11:41:33;;;;;;;10.73;3.80;;;;;;;27.53;41.44;98482.72;5134463;27;20047;-92
2022/05/31 11:44:28;;;;;;;14.00;4.18;;;;;;;27.42;40.36;98459.22;5133611;27;20047;-93
2022/05/31 11:47:04;;;;;;;8.20;3.92;;;;;;;27.83;40.22;98453.28;5116714;28;20047;-95
2022/05/31 11:49:41;;;;;;;12.50;4.07;;;;;;;28.18;39.70;98451.50;5136415;27;20488;-95
2022/05/31 11:52:20;;;;;;;8.63;3.92;;;;;;;28.49;40.00;98471.00;5126263;28;20571;-93
2022/05/31 11:58:36;;;;;;;11.10;3.78;;;;;;;28.49;39.49;98472.88;5115069;27;20388;-94
2022/05/31 12:01:11;;;;;;;10.07;4.00;;;;;;;28.10;39.06;98457.75;5114859;28;20505;-95
2022/05/31 12:03:47;;;;;;;12.25;4.07;;;;;;;28.30;38.01;98452.94;5118091;28;20097;-93
2022/05/31 12:06:20;;;;;;;11.13;4.00;;;;;;;28.36;38.19;98448.69;5106281;28;20040;-94
2022/05/31 12:08:51;;;;;;;11.43;4.43;;;;;;;28.67;38.24;98457.25;5113901;28;20036;-94
2022/05/31 12:11:22;;;;;;;11.63;4.18;;;;;;;28.30;38.11;98452.94;5113398;28;20055;-93